sensor_id;sensor_type;location;lat;lon;timestamp;P1;durP1;ratioP1;P2;durP2;ratioP2
41061;SDS011;26812;42.662;23.352;2023-03-23T00:01:07;50.78;;;31.05;;
41061;SDS011;26812;42.662;23.352;2023-03-23T00:03:35;49.13;;;31.17;;
41061;SDS011;26812;42.662;23.352;2023-03-23T00:06:02;51.42;;;32.20;;
41061;SDS011;26812;42.662;23.352;2023-03-23T00:08:29;58.30;;;32.95;;
41061;SDS011;26812;42.662;23.352;2023-03-23T00:11:10;50.58;;;29.75;;
41061;SDS011;26812;42.662;23.352;2023-03-23T00:13:44;56.55;;;30.63;;
41061;SDS011;26812;42.662;23.352;2023-03-23T00:16:16;51.65;;;31.95;;
41061;SDS011;26812;42.662;23.352;2023-03-23T00:18:44;54.42;;;31.13;;
41061;SDS011;26812;42.662;23.352;2023-03-23T00:21:18;60.75;;;31.45;;
41061;SDS011;26812;42.662;23.352;2023-03-23T00:23:44;59.13;;;32.28;;
41061;SDS011;26812;42.662;23.352;2023-03-23T00:26:09;56.28;;;30.38;;
41061;SDS011;26812;42.662;23.352;2023-03-23T00:28:36;62.15;;;32.53;;
41061;SDS011;26812;42.662;23.352;2023-03-23T00:31:02;61.45;;;32.67;;
41061;SDS011;26812;42.662;23.352;2023-03-23T00:33:31;62.00;;;30.83;;
41061;SDS011;26812;42.662;23.352;2023-03-23T00:35:59;53.05;;;30.30;;
41061;SDS011;26812;42.662;23.352;2023-03-23T00:38:24;53.63;;;30.60;;
41061;SDS011;26812;42.662;23.352;2023-03-23T00:40:50;60.38;;;31.73;;
41061;SDS011;26812;42.662;23.352;2023-03-23T00:43:16;49.42;;;29.08;;
41061;SDS011;26812;42.662;23.352;2023-03-23T00:45:43;50.58;;;30.23;;
41061;SDS011;26812;42.662;23.352;2023-03-23T00:48:20;51.03;;;31.23;;
41061;SDS011;26812;42.662;23.352;2023-03-23T00:50:47;47.40;;;29.17;;
41061;SDS011;26812;42.662;23.352;2023-03-23T00:53:13;49.55;;;30.42;;
41061;SDS011;26812;42.662;23.352;2023-03-23T00:55:40;44.95;;;28.90;;
41061;SDS011;26812;42.662;23.352;2023-03-23T00:58:07;50.75;;;30.92;;
41061;SDS011;26812;42.662;23.352;2023-03-23T01:00:32;43.20;;;27.08;;
41061;SDS011;26812;42.662;23.352;2023-03-23T01:02:58;48.55;;;28.65;;
41061;SDS011;26812;42.662;23.352;2023-03-23T01:05:23;44.33;;;26.83;;
41061;SDS011;26812;42.662;23.352;2023-03-23T01:07:49;42.33;;;28.27;;
41061;SDS011;26812;42.662;23.352;2023-03-23T01:10:14;46.60;;;26.70;;
41061;SDS011;26812;42.662;23.352;2023-03-23T01:12:43;43.03;;;26.95;;
41061;SDS011;26812;42.662;23.352;2023-03-23T01:15:14;43.40;;;26.77;;
41061;SDS011;26812;42.662;23.352;2023-03-23T01:17:41;49.70;;;29.00;;
41061;SDS011;26812;42.662;23.352;2023-03-23T01:20:07;47.60;;;28.90;;
41061;SDS011;26812;42.662;23.352;2023-03-23T01:22:33;53.83;;;30.80;;
41061;SDS011;26812;42.662;23.352;2023-03-23T01:24:58;47.95;;;31.55;;
41061;SDS011;26812;42.662;23.352;2023-03-23T01:27:23;52.15;;;31.05;;
41061;SDS011;26812;42.662;23.352;2023-03-23T01:29:49;57.90;;;29.60;;
41061;SDS011;26812;42.662;23.352;2023-03-23T01:32:15;49.80;;;29.98;;
41061;SDS011;26812;42.662;23.352;2023-03-23T01:34:40;46.50;;;27.98;;
41061;SDS011;26812;42.662;23.352;2023-03-23T01:37:06;42.28;;;26.52;;
41061;SDS011;26812;42.662;23.352;2023-03-23T01:39:31;41.40;;;26.90;;
41061;SDS011;26812;42.662;23.352;2023-03-23T01:41:57;39.58;;;25.98;;
41061;SDS011;26812;42.662;23.352;2023-03-23T01:46:47;43.70;;;25.60;;
41061;SDS011;26812;42.662;23.352;2023-03-23T01:49:15;42.47;;;25.52;;
41061;SDS011;26812;42.662;23.352;2023-03-23T01:51:51;48.28;;;27.08;;
41061;SDS011;26812;42.662;23.352;2023-03-23T01:54:21;42.15;;;25.98;;
41061;SDS011;26812;42.662;23.352;2023-03-23T01:56:56;45.17;;;26.33;;
41061;SDS011;26812;42.662;23.352;2023-03-23T01:59:26;41.83;;;26.92;;
41061;SDS011;26812;42.662;23.352;2023-03-23T02:01:54;45.35;;;26.50;;
41061;SDS011;26812;42.662;23.352;2023-03-23T02:04:20;45.38;;;27.13;;
41061;SDS011;26812;42.662;23.352;2023-03-23T02:06:48;40.28;;;26.35;;
41061;SDS011;26812;42.662;23.352;2023-03-23T02:09:15;39.30;;;25.45;;
41061;SDS011;26812;42.662;23.352;2023-03-23T02:11:45;41.38;;;25.83;;
41061;SDS011;26812;42.662;23.352;2023-03-23T02:14:12;38.45;;;24.15;;
41061;SDS011;26812;42.662;23.352;2023-03-23T02:16:44;37.72;;;23.90;;
41061;SDS011;26812;42.662;23.352;2023-03-23T02:35:58;28.40;;;19.35;;
41061;SDS011;26812;42.662;23.352;2023-03-23T02:41:41;31.40;;;19.52;;
41061;SDS011;26812;42.662;23.352;2023-03-23T02:44:19;30.85;;;20.17;;
41061;SDS011;26812;42.662;23.352;2023-03-23T02:46:48;33.08;;;20.75;;
41061;SDS011;26812;42.662;23.352;2023-03-23T02:49:15;30.50;;;20.50;;
41061;SDS011;26812;42.662;23.352;2023-03-23T02:51:43;30.48;;;20.40;;
41061;SDS011;26812;42.662;23.352;2023-03-23T02:54:11;31.25;;;19.58;;
41061;SDS011;26812;42.662;23.352;2023-03-23T02:56:38;40.00;;;23.80;;
41061;SDS011;26812;42.662;23.352;2023-03-23T02:59:05;42.00;;;28.08;;
41061;SDS011;26812;42.662;23.352;2023-03-23T03:04:05;59.78;;;33.45;;
41061;SDS011;26812;42.662;23.352;2023-03-23T03:09:53;53.50;;;31.58;;
41061;SDS011;26812;42.662;23.352;2023-03-23T03:15:45;66.38;;;35.50;;
41061;SDS011;26812;42.662;23.352;2023-03-23T03:18:22;64.22;;;34.55;;
41061;SDS011;26812;42.662;23.352;2023-03-23T03:20:53;65.57;;;36.28;;
41061;SDS011;26812;42.662;23.352;2023-03-23T03:23:23;69.50;;;35.30;;
41061;SDS011;26812;42.662;23.352;2023-03-23T03:25:51;62.47;;;33.55;;
41061;SDS011;26812;42.662;23.352;2023-03-23T03:28:22;60.53;;;33.20;;
41061;SDS011;26812;42.662;23.352;2023-03-23T03:30:58;61.90;;;33.50;;
41061;SDS011;26812;42.662;23.352;2023-03-23T03:33:28;61.75;;;34.75;;
41061;SDS011;26812;42.662;23.352;2023-03-23T03:35:57;59.30;;;33.83;;
41061;SDS011;26812;42.662;23.352;2023-03-23T03:38:26;60.60;;;33.50;;
41061;SDS011;26812;42.662;23.352;2023-03-23T03:40:52;58.72;;;32.85;;
41061;SDS011;26812;42.662;23.352;2023-03-23T03:43:18;61.15;;;35.25;;
41061;SDS011;26812;42.662;23.352;2023-03-23T03:45:44;61.42;;;36.03;;
41061;SDS011;26812;42.662;23.352;2023-03-23T03:48:10;60.45;;;32.78;;
41061;SDS011;26812;42.662;23.352;2023-03-23T03:50:36;65.57;;;36.55;;
41061;SDS011;26812;42.662;23.352;2023-03-23T03:53:01;70.90;;;35.85;;
41061;SDS011;26812;42.662;23.352;2023-03-23T03:55:28;65.55;;;34.92;;
41061;SDS011;26812;42.662;23.352;2023-03-23T03:57:54;64.22;;;35.72;;
41061;SDS011;26812;42.662;23.352;2023-03-23T04:00:20;61.78;;;35.05;;
41061;SDS011;26812;42.662;23.352;2023-03-23T04:02:47;59.38;;;35.15;;
41061;SDS011;26812;42.662;23.352;2023-03-23T04:05:19;57.15;;;33.15;;
41061;SDS011;26812;42.662;23.352;2023-03-23T04:07:45;56.88;;;33.22;;
41061;SDS011;26812;42.662;23.352;2023-03-23T04:10:16;51.22;;;32.17;;
41061;SDS011;26812;42.662;23.352;2023-03-23T04:12:44;54.67;;;32.65;;
41061;SDS011;26812;42.662;23.352;2023-03-23T04:15:10;56.33;;;33.95;;
41061;SDS011;26812;42.662;23.352;2023-03-23T04:17:36;57.95;;;33.53;;
41061;SDS011;26812;42.662;23.352;2023-03-23T04:20:02;56.75;;;31.13;;
41061;SDS011;26812;42.662;23.352;2023-03-23T04:22:40;55.58;;;31.63;;
41061;SDS011;26812;42.662;23.352;2023-03-23T04:25:09;51.38;;;30.52;;
41061;SDS011;26812;42.662;23.352;2023-03-23T04:27:35;55.90;;;33.08;;
41061;SDS011;26812;42.662;23.352;2023-03-23T04:30:01;52.53;;;31.95;;
41061;SDS011;26812;42.662;23.352;2023-03-23T04:32:28;54.15;;;31.38;;
41061;SDS011;26812;42.662;23.352;2023-03-23T04:35:02;50.28;;;29.77;;
41061;SDS011;26812;42.662;23.352;2023-03-23T04:37:28;48.55;;;30.33;;
41061;SDS011;26812;42.662;23.352;2023-03-23T04:39:56;54.15;;;28.08;;
41061;SDS011;26812;42.662;23.352;2023-03-23T04:42:29;44.92;;;27.70;;
41061;SDS011;26812;42.662;23.352;2023-03-23T04:44:59;42.83;;;27.33;;
41061;SDS011;26812;42.662;23.352;2023-03-23T04:47:25;50.25;;;28.50;;
41061;SDS011;26812;42.662;23.352;2023-03-23T04:49:54;42.15;;;26.27;;
41061;SDS011;26812;42.662;23.352;2023-03-23T04:52:24;46.83;;;28.98;;
41061;SDS011;26812;42.662;23.352;2023-03-23T04:54:50;44.58;;;29.33;;
41061;SDS011;26812;42.662;23.352;2023-03-23T04:57:16;46.35;;;28.10;;
41061;SDS011;26812;42.662;23.352;2023-03-23T04:59:42;37.28;;;25.80;;
41061;SDS011;26812;42.662;23.352;2023-03-23T05:02:14;47.13;;;28.63;;
41061;SDS011;26812;42.662;23.352;2023-03-23T05:04:42;48.45;;;28.95;;
41061;SDS011;26812;42.662;23.352;2023-03-23T05:07:07;49.35;;;29.13;;
41061;SDS011;26812;42.662;23.352;2023-03-23T05:09:33;45.75;;;27.52;;
41061;SDS011;26812;42.662;23.352;2023-03-23T05:12:04;46.72;;;26.98;;
41061;SDS011;26812;42.662;23.352;2023-03-23T05:14:34;40.92;;;25.90;;
41061;SDS011;26812;42.662;23.352;2023-03-23T05:16:59;41.30;;;26.92;;
41061;SDS011;26812;42.662;23.352;2023-03-23T05:19:25;40.28;;;25.65;;
41061;SDS011;26812;42.662;23.352;2023-03-23T05:21:50;43.15;;;26.05;;
41061;SDS011;26812;42.662;23.352;2023-03-23T05:24:15;39.33;;;24.00;;
41061;SDS011;26812;42.662;23.352;2023-03-23T05:26:42;38.40;;;24.50;;
41061;SDS011;26812;42.662;23.352;2023-03-23T05:29:09;38.45;;;24.20;;
41061;SDS011;26812;42.662;23.352;2023-03-23T05:31:35;29.42;;;20.05;;
41061;SDS011;26812;42.662;23.352;2023-03-23T05:34:02;32.88;;;19.83;;
41061;SDS011;26812;42.662;23.352;2023-03-23T05:36:28;28.27;;;18.38;;
41061;SDS011;26812;42.662;23.352;2023-03-23T05:38:54;27.70;;;17.60;;
41061;SDS011;26812;42.662;23.352;2023-03-23T05:41:19;27.80;;;18.40;;
41061;SDS011;26812;42.662;23.352;2023-03-23T05:43:46;31.30;;;19.63;;
41061;SDS011;26812;42.662;23.352;2023-03-23T05:46:11;24.00;;;16.38;;
41061;SDS011;26812;42.662;23.352;2023-03-23T05:48:36;23.25;;;15.70;;
41061;SDS011;26812;42.662;23.352;2023-03-23T05:51:03;24.67;;;15.23;;
41061;SDS011;26812;42.662;23.352;2023-03-23T05:53:28;24.92;;;16.95;;
41061;SDS011;26812;42.662;23.352;2023-03-23T05:55:58;20.48;;;15.30;;
41061;SDS011;26812;42.662;23.352;2023-03-23T05:58:25;21.65;;;15.32;;
41061;SDS011;26812;42.662;23.352;2023-03-23T06:00:50;20.23;;;14.32;;
41061;SDS011;26812;42.662;23.352;2023-03-23T06:03:16;20.80;;;14.50;;
41061;SDS011;26812;42.662;23.352;2023-03-23T06:05:42;19.02;;;13.80;;
41061;SDS011;26812;42.662;23.352;2023-03-23T06:08:09;20.20;;;14.93;;
41061;SDS011;26812;42.662;23.352;2023-03-23T06:10:34;19.30;;;13.13;;
41061;SDS011;26812;42.662;23.352;2023-03-23T06:13:01;19.38;;;13.63;;
41061;SDS011;26812;42.662;23.352;2023-03-23T06:15:27;19.02;;;12.98;;
41061;SDS011;26812;42.662;23.352;2023-03-23T06:17:57;18.00;;;13.02;;
41061;SDS011;26812;42.662;23.352;2023-03-23T06:20:26;19.40;;;13.90;;
41061;SDS011;26812;42.662;23.352;2023-03-23T06:22:51;17.33;;;12.98;;
41061;SDS011;26812;42.662;23.352;2023-03-23T06:25:17;19.05;;;13.15;;
41061;SDS011;26812;42.662;23.352;2023-03-23T06:27:43;17.92;;;14.70;;
41061;SDS011;26812;42.662;23.352;2023-03-23T06:30:10;19.10;;;13.85;;
41061;SDS011;26812;42.662;23.352;2023-03-23T06:32:36;20.52;;;15.32;;
41061;SDS011;26812;42.662;23.352;2023-03-23T06:35:03;17.88;;;14.68;;
41061;SDS011;26812;42.662;23.352;2023-03-23T06:37:29;21.58;;;14.85;;
41061;SDS011;26812;42.662;23.352;2023-03-23T06:39:55;18.50;;;14.25;;
41061;SDS011;26812;42.662;23.352;2023-03-23T06:42:22;16.92;;;13.82;;
41061;SDS011;26812;42.662;23.352;2023-03-23T06:44:55;18.52;;;13.43;;
41061;SDS011;26812;42.662;23.352;2023-03-23T06:47:22;17.33;;;14.20;;
41061;SDS011;26812;42.662;23.352;2023-03-23T06:49:48;19.58;;;14.52;;
41061;SDS011;26812;42.662;23.352;2023-03-23T06:52:13;18.23;;;12.88;;
41061;SDS011;26812;42.662;23.352;2023-03-23T06:54:39;20.67;;;14.25;;
41061;SDS011;26812;42.662;23.352;2023-03-23T06:57:05;15.68;;;13.07;;
41061;SDS011;26812;42.662;23.352;2023-03-23T06:59:30;20.90;;;13.38;;
41061;SDS011;26812;42.662;23.352;2023-03-23T07:01:56;16.40;;;11.68;;
41061;SDS011;26812;42.662;23.352;2023-03-23T07:04:21;15.75;;;12.88;;
41061;SDS011;26812;42.662;23.352;2023-03-23T07:06:48;13.65;;;11.13;;
41061;SDS011;26812;42.662;23.352;2023-03-23T07:09:14;14.68;;;12.23;;
41061;SDS011;26812;42.662;23.352;2023-03-23T07:11:40;16.77;;;12.35;;
41061;SDS011;26812;42.662;23.352;2023-03-23T07:14:07;16.98;;;13.68;;
41061;SDS011;26812;42.662;23.352;2023-03-23T07:16:32;16.02;;;13.00;;
41061;SDS011;26812;42.662;23.352;2023-03-23T07:18:58;16.33;;;12.63;;
41061;SDS011;26812;42.662;23.352;2023-03-23T07:21:24;12.88;;;11.45;;
41061;SDS011;26812;42.662;23.352;2023-03-23T07:23:50;14.30;;;12.30;;
41061;SDS011;26812;42.662;23.352;2023-03-23T07:26:15;13.88;;;11.50;;
41061;SDS011;26812;42.662;23.352;2023-03-23T07:28:41;16.30;;;11.93;;
41061;SDS011;26812;42.662;23.352;2023-03-23T07:31:07;13.82;;;12.45;;
41061;SDS011;26812;42.662;23.352;2023-03-23T07:33:33;18.33;;;13.20;;
41061;SDS011;26812;42.662;23.352;2023-03-23T07:36:00;18.08;;;14.65;;
41061;SDS011;26812;42.662;23.352;2023-03-23T07:38:27;18.17;;;13.20;;
41061;SDS011;26812;42.662;23.352;2023-03-23T07:40:52;17.92;;;13.88;;
41061;SDS011;26812;42.662;23.352;2023-03-23T07:43:18;15.77;;;12.93;;
41061;SDS011;26812;42.662;23.352;2023-03-23T07:45:45;19.17;;;13.20;;
41061;SDS011;26812;42.662;23.352;2023-03-23T07:48:10;17.80;;;13.70;;
41061;SDS011;26812;42.662;23.352;2023-03-23T07:50:36;19.55;;;13.15;;
41061;SDS011;26812;42.662;23.352;2023-03-23T07:53:02;16.55;;;13.80;;
41061;SDS011;26812;42.662;23.352;2023-03-23T07:55:28;15.98;;;13.95;;
41061;SDS011;26812;42.662;23.352;2023-03-23T07:57:54;18.40;;;14.93;;
41061;SDS011;26812;42.662;23.352;2023-03-23T08:00:20;19.25;;;15.40;;
41061;SDS011;26812;42.662;23.352;2023-03-23T08:02:49;16.00;;;13.70;;
41061;SDS011;26812;42.662;23.352;2023-03-23T08:05:20;15.93;;;13.55;;
41061;SDS011;26812;42.662;23.352;2023-03-23T08:07:47;19.67;;;14.40;;
41061;SDS011;26812;42.662;23.352;2023-03-23T08:10:13;16.75;;;13.85;;
41061;SDS011;26812;42.662;23.352;2023-03-23T08:12:40;17.73;;;14.90;;
41061;SDS011;26812;42.662;23.352;2023-03-23T08:15:07;22.30;;;15.63;;
41061;SDS011;26812;42.662;23.352;2023-03-23T08:17:37;18.33;;;13.43;;
41061;SDS011;26812;42.662;23.352;2023-03-23T08:20:05;16.45;;;14.30;;
41061;SDS011;26812;42.662;23.352;2023-03-23T08:22:37;17.70;;;14.23;;
41061;SDS011;26812;42.662;23.352;2023-03-23T08:25:11;20.85;;;15.00;;
41061;SDS011;26812;42.662;23.352;2023-03-23T08:27:39;15.65;;;12.40;;
41061;SDS011;26812;42.662;23.352;2023-03-23T08:30:09;15.52;;;12.98;;
41061;SDS011;26812;42.662;23.352;2023-03-23T08:32:39;18.15;;;14.13;;
41061;SDS011;26812;42.662;23.352;2023-03-23T08:35:06;15.07;;;11.00;;
41061;SDS011;26812;42.662;23.352;2023-03-23T08:37:34;14.63;;;11.88;;
41061;SDS011;26812;42.662;23.352;2023-03-23T08:40:00;11.52;;;9.77;;
41061;SDS011;26812;42.662;23.352;2023-03-23T08:42:34;11.63;;;9.85;;
41061;SDS011;26812;42.662;23.352;2023-03-23T08:45:00;9.70;;;8.63;;
41061;SDS011;26812;42.662;23.352;2023-03-23T08:47:26;11.00;;;9.88;;
41061;SDS011;26812;42.662;23.352;2023-03-23T08:49:52;12.32;;;10.07;;
41061;SDS011;26812;42.662;23.352;2023-03-23T08:52:19;12.15;;;8.95;;
41061;SDS011;26812;42.662;23.352;2023-03-23T08:54:45;9.52;;;8.07;;
41061;SDS011;26812;42.662;23.352;2023-03-23T08:57:12;7.93;;;6.60;;
41061;SDS011;26812;42.662;23.352;2023-03-23T08:59:43;9.77;;;7.10;;
41061;SDS011;26812;42.662;23.352;2023-03-23T09:02:12;16.55;;;9.98;;
41061;SDS011;26812;42.662;23.352;2023-03-23T09:04:39;10.57;;;7.75;;
41061;SDS011;26812;42.662;23.352;2023-03-23T09:07:25;8.77;;;7.88;;
41061;SDS011;26812;42.662;23.352;2023-03-23T09:09:51;12.88;;;7.72;;
41061;SDS011;26812;42.662;23.352;2023-03-23T09:12:42;10.07;;;8.20;;
41061;SDS011;26812;42.662;23.352;2023-03-23T09:15:16;8.57;;;7.63;;
41061;SDS011;26812;42.662;23.352;2023-03-23T09:17:43;8.27;;;6.78;;
41061;SDS011;26812;42.662;23.352;2023-03-23T09:20:11;10.30;;;7.60;;
41061;SDS011;26812;42.662;23.352;2023-03-23T09:22:42;7.40;;;6.45;;
41061;SDS011;26812;42.662;23.352;2023-03-23T09:25:10;8.52;;;6.38;;
41061;SDS011;26812;42.662;23.352;2023-03-23T09:27:37;6.63;;;5.60;;
41061;SDS011;26812;42.662;23.352;2023-03-23T09:30:05;9.25;;;7.22;;
41061;SDS011;26812;42.662;23.352;2023-03-23T09:32:37;9.45;;;7.03;;
41061;SDS011;26812;42.662;23.352;2023-03-23T09:35:05;10.07;;;7.60;;
41061;SDS011;26812;42.662;23.352;2023-03-23T09:37:34;10.60;;;7.65;;
41061;SDS011;26812;42.662;23.352;2023-03-23T09:40:04;9.13;;;7.05;;
41061;SDS011;26812;42.662;23.352;2023-03-23T09:54:24;9.40;;;6.53;;
41061;SDS011;26812;42.662;23.352;2023-03-23T09:56:57;6.95;;;6.22;;
41061;SDS011;26812;42.662;23.352;2023-03-23T10:02:37;4.65;;;4.25;;
41061;SDS011;26812;42.662;23.352;2023-03-23T10:04:51;5.95;;;5.35;;
41061;SDS011;26812;42.662;23.352;2023-03-23T10:07:20;8.73;;;6.78;;
41061;SDS011;26812;42.662;23.352;2023-03-23T10:09:48;8.15;;;6.03;;
41061;SDS011;26812;42.662;23.352;2023-03-23T10:28:36;8.10;;;6.47;;
41061;SDS011;26812;42.662;23.352;2023-03-23T10:31:05;7.95;;;6.75;;
41061;SDS011;26812;42.662;23.352;2023-03-23T10:39:11;7.55;;;6.25;;
41061;SDS011;26812;42.662;23.352;2023-03-23T10:41:41;7.20;;;5.88;;
41061;SDS011;26812;42.662;23.352;2023-03-23T10:44:11;6.95;;;5.65;;
41061;SDS011;26812;42.662;23.352;2023-03-23T10:46:45;7.28;;;5.53;;
41061;SDS011;26812;42.662;23.352;2023-03-23T10:49:25;7.60;;;6.28;;
41061;SDS011;26812;42.662;23.352;2023-03-23T10:54:45;6.90;;;6.18;;
41061;SDS011;26812;42.662;23.352;2023-03-23T10:57:38;9.32;;;6.38;;
41061;SDS011;26812;42.662;23.352;2023-03-23T11:00:07;7.10;;;6.25;;
41061;SDS011;26812;42.662;23.352;2023-03-23T11:02:42;8.10;;;7.20;;
41061;SDS011;26812;42.662;23.352;2023-03-23T11:05:24;8.07;;;6.05;;
41061;SDS011;26812;42.662;23.352;2023-03-23T11:07:54;7.90;;;6.18;;
41061;SDS011;26812;42.662;23.352;2023-03-23T11:10:26;7.07;;;5.38;;
41061;SDS011;26812;42.662;23.352;2023-03-23T11:12:58;6.63;;;5.53;;
41061;SDS011;26812;42.662;23.352;2023-03-23T11:15:28;7.78;;;5.40;;
41061;SDS011;26812;42.662;23.352;2023-03-23T11:18:02;7.85;;;6.20;;
41061;SDS011;26812;42.662;23.352;2023-03-23T11:20:34;9.40;;;6.18;;
41061;SDS011;26812;42.662;23.352;2023-03-23T11:23:07;7.80;;;6.13;;
41061;SDS011;26812;42.662;23.352;2023-03-23T11:29:25;9.05;;;6.15;;
41061;SDS011;26812;42.662;23.352;2023-03-23T11:31:36;7.18;;;5.82;;
41061;SDS011;26812;42.662;23.352;2023-03-23T11:34:15;9.18;;;6.07;;
41061;SDS011;26812;42.662;23.352;2023-03-23T11:36:47;7.00;;;5.85;;
41061;SDS011;26812;42.662;23.352;2023-03-23T11:39:28;5.88;;;5.05;;
41061;SDS011;26812;42.662;23.352;2023-03-23T11:41:59;6.10;;;5.30;;
41061;SDS011;26812;42.662;23.352;2023-03-23T11:44:39;5.57;;;4.97;;
41061;SDS011;26812;42.662;23.352;2023-03-23T11:47:15;6.55;;;5.88;;
41061;SDS011;26812;42.662;23.352;2023-03-23T11:52:53;6.72;;;5.75;;
41061;SDS011;26812;42.662;23.352;2023-03-23T11:55:28;6.72;;;5.43;;
41061;SDS011;26812;42.662;23.352;2023-03-23T11:58:00;6.45;;;5.35;;
41061;SDS011;26812;42.662;23.352;2023-03-23T12:00:32;6.18;;;4.82;;
41061;SDS011;26812;42.662;23.352;2023-03-23T12:06:02;6.07;;;5.40;;
41061;SDS011;26812;42.662;23.352;2023-03-23T12:11:35;7.55;;;6.25;;
41061;SDS011;26812;42.662;23.352;2023-03-23T12:41:55;6.68;;;5.32;;
41061;SDS011;26812;42.662;23.352;2023-03-23T12:44:27;5.93;;;5.28;;
41061;SDS011;26812;42.662;23.352;2023-03-23T12:49:46;7.47;;;5.82;;
41061;SDS011;26812;42.662;23.352;2023-03-23T12:52:29;5.53;;;5.03;;
41061;SDS011;26812;42.662;23.352;2023-03-23T12:57:24;7.72;;;5.25;;
41061;SDS011;26812;42.662;23.352;2023-03-23T13:00:12;8.15;;;5.65;;
41061;SDS011;26812;42.662;23.352;2023-03-23T13:07:56;7.78;;;5.18;;
41061;SDS011;26812;42.662;23.352;2023-03-23T13:10:30;7.28;;;6.10;;
41061;SDS011;26812;42.662;23.352;2023-03-23T13:13:07;7.25;;;5.80;;
41061;SDS011;26812;42.662;23.352;2023-03-23T13:26:17;6.63;;;5.20;;
41061;SDS011;26812;42.662;23.352;2023-03-23T13:31:17;6.20;;;5.50;;
41061;SDS011;26812;42.662;23.352;2023-03-23T13:33:50;7.18;;;5.90;;
41061;SDS011;26812;42.662;23.352;2023-03-23T13:36:19;7.75;;;5.00;;
41061;SDS011;26812;42.662;23.352;2023-03-23T13:38:52;6.90;;;5.80;;
41061;SDS011;26812;42.662;23.352;2023-03-23T13:41:18;6.25;;;4.82;;
41061;SDS011;26812;42.662;23.352;2023-03-23T13:43:46;7.18;;;5.43;;
41061;SDS011;26812;42.662;23.352;2023-03-23T13:48:49;6.00;;;4.95;;
41061;SDS011;26812;42.662;23.352;2023-03-23T13:54:14;6.05;;;4.78;;
41061;SDS011;26812;42.662;23.352;2023-03-23T13:56:41;6.85;;;5.32;;
41061;SDS011;26812;42.662;23.352;2023-03-23T13:59:15;7.47;;;5.60;;
41061;SDS011;26812;42.662;23.352;2023-03-23T14:01:56;6.25;;;5.05;;
41061;SDS011;26812;42.662;23.352;2023-03-23T14:04:42;6.50;;;4.95;;
41061;SDS011;26812;42.662;23.352;2023-03-23T14:07:15;5.45;;;4.93;;
41061;SDS011;26812;42.662;23.352;2023-03-23T14:09:44;7.18;;;5.50;;
41061;SDS011;26812;42.662;23.352;2023-03-23T14:14:45;5.25;;;4.63;;
41061;SDS011;26812;42.662;23.352;2023-03-23T14:17:15;5.65;;;4.78;;
41061;SDS011;26812;42.662;23.352;2023-03-23T14:19:48;8.38;;;6.20;;
41061;SDS011;26812;42.662;23.352;2023-03-23T14:22:17;7.00;;;5.25;;
41061;SDS011;26812;42.662;23.352;2023-03-23T14:24:51;7.25;;;5.72;;
41061;SDS011;26812;42.662;23.352;2023-03-23T14:27:21;7.25;;;5.80;;
41061;SDS011;26812;42.662;23.352;2023-03-23T14:30:02;8.38;;;6.53;;
41061;SDS011;26812;42.662;23.352;2023-03-23T14:32:31;7.75;;;5.50;;
41061;SDS011;26812;42.662;23.352;2023-03-23T14:34:57;9.30;;;5.30;;
41061;SDS011;26812;42.662;23.352;2023-03-23T14:37:24;6.45;;;5.85;;
41061;SDS011;26812;42.662;23.352;2023-03-23T14:39:52;6.68;;;4.90;;
41061;SDS011;26812;42.662;23.352;2023-03-23T14:42:20;6.25;;;5.07;;
41061;SDS011;26812;42.662;23.352;2023-03-23T14:44:52;7.30;;;5.18;;
41061;SDS011;26812;42.662;23.352;2023-03-23T14:47:34;8.20;;;5.72;;
41061;SDS011;26812;42.662;23.352;2023-03-23T14:50:04;5.47;;;4.88;;
41061;SDS011;26812;42.662;23.352;2023-03-23T14:52:35;6.78;;;5.30;;
41061;SDS011;26812;42.662;23.352;2023-03-23T14:55:12;6.55;;;5.25;;
41061;SDS011;26812;42.662;23.352;2023-03-23T14:57:42;7.63;;;5.13;;
41061;SDS011;26812;42.662;23.352;2023-03-23T15:00:18;10.18;;;5.47;;
41061;SDS011;26812;42.662;23.352;2023-03-23T15:02:49;5.95;;;5.10;;
41061;SDS011;26812;42.662;23.352;2023-03-23T15:05:19;6.05;;;5.40;;
41061;SDS011;26812;42.662;23.352;2023-03-23T15:07:52;7.00;;;5.75;;
41061;SDS011;26812;42.662;23.352;2023-03-23T15:10:21;7.55;;;5.47;;
41061;SDS011;26812;42.662;23.352;2023-03-23T15:12:48;8.30;;;4.93;;
41061;SDS011;26812;42.662;23.352;2023-03-23T15:17:50;6.63;;;5.60;;
41061;SDS011;26812;42.662;23.352;2023-03-23T15:22:49;6.75;;;5.93;;
41061;SDS011;26812;42.662;23.352;2023-03-23T15:25:19;8.95;;;5.93;;
41061;SDS011;26812;42.662;23.352;2023-03-23T15:27:51;7.40;;;5.65;;
41061;SDS011;26812;42.662;23.352;2023-03-23T15:32:47;6.32;;;5.20;;
41061;SDS011;26812;42.662;23.352;2023-03-23T15:35:25;5.95;;;4.72;;
41061;SDS011;26812;42.662;23.352;2023-03-23T15:40:24;6.72;;;4.97;;
41061;SDS011;26812;42.662;23.352;2023-03-23T15:45:50;8.48;;;5.85;;
41061;SDS011;26812;42.662;23.352;2023-03-23T15:48:20;7.88;;;5.45;;
41061;SDS011;26812;42.662;23.352;2023-03-23T15:50:46;5.88;;;5.15;;
41061;SDS011;26812;42.662;23.352;2023-03-23T15:55:51;7.85;;;5.53;;
41061;SDS011;26812;42.662;23.352;2023-03-23T15:58:17;7.22;;;5.65;;
41061;SDS011;26812;42.662;23.352;2023-03-23T16:00:42;8.93;;;5.53;;
41061;SDS011;26812;42.662;23.352;2023-03-23T16:03:12;9.52;;;6.97;;
41061;SDS011;26812;42.662;23.352;2023-03-23T16:05:51;7.55;;;5.90;;
41061;SDS011;26812;42.662;23.352;2023-03-23T16:08:21;6.75;;;5.25;;
41061;SDS011;26812;42.662;23.352;2023-03-23T16:10:47;8.63;;;5.63;;
41061;SDS011;26812;42.662;23.352;2023-03-23T16:13:13;9.13;;;5.25;;
41061;SDS011;26812;42.662;23.352;2023-03-23T16:15:38;7.78;;;5.20;;
41061;SDS011;26812;42.662;23.352;2023-03-23T16:18:04;7.50;;;5.72;;
41061;SDS011;26812;42.662;23.352;2023-03-23T16:20:30;7.45;;;5.80;;
41061;SDS011;26812;42.662;23.352;2023-03-23T16:22:57;8.73;;;5.38;;
41061;SDS011;26812;42.662;23.352;2023-03-23T16:25:23;5.97;;;5.38;;
41061;SDS011;26812;42.662;23.352;2023-03-23T16:27:48;7.40;;;5.72;;
41061;SDS011;26812;42.662;23.352;2023-03-23T16:32:43;8.15;;;5.70;;
41061;SDS011;26812;42.662;23.352;2023-03-23T16:35:09;6.28;;;5.18;;
41061;SDS011;26812;42.662;23.352;2023-03-23T16:37:35;7.63;;;5.78;;
41061;SDS011;26812;42.662;23.352;2023-03-23T16:40:01;7.68;;;5.65;;
41061;SDS011;26812;42.662;23.352;2023-03-23T16:42:29;7.43;;;5.63;;
41061;SDS011;26812;42.662;23.352;2023-03-23T16:44:54;5.38;;;4.85;;
41061;SDS011;26812;42.662;23.352;2023-03-23T16:47:20;5.68;;;4.97;;
41061;SDS011;26812;42.662;23.352;2023-03-23T16:49:49;8.57;;;5.13;;
41061;SDS011;26812;42.662;23.352;2023-03-23T16:52:16;8.07;;;5.22;;
41061;SDS011;26812;42.662;23.352;2023-03-23T16:54:41;7.75;;;4.93;;
41061;SDS011;26812;42.662;23.352;2023-03-23T16:57:07;10.63;;;6.32;;
41061;SDS011;26812;42.662;23.352;2023-03-23T16:59:32;7.32;;;5.75;;
41061;SDS011;26812;42.662;23.352;2023-03-23T17:01:57;13.70;;;7.10;;
41061;SDS011;26812;42.662;23.352;2023-03-23T17:04:30;8.48;;;5.18;;
41061;SDS011;26812;42.662;23.352;2023-03-23T17:06:57;8.80;;;5.90;;
41061;SDS011;26812;42.662;23.352;2023-03-23T17:09:23;10.05;;;6.00;;